createdAt,value
2023-04-01T00:02:40.145Z,79.32
2023-04-01T00:05:43.548Z,79.18
2023-04-01T00:08:47.648Z,78.98
2023-04-01T00:11:50.632Z,78.79
2023-04-01T00:14:53.367Z,78.72
2023-04-01T00:17:56.209Z,78.79
2023-04-01T00:20:59.042Z,78.97
2023-04-01T00:24:01.822Z,79.23
2023-04-01T00:27:04.781Z,79.42
2023-04-01T00:30:08.624Z,79.49
2023-04-01T00:33:12.116Z,79.63
2023-04-01T00:36:17.913Z,79.39
2023-04-01T00:39:22.333Z,79.48
2023-04-01T00:42:25.121Z,79.33
2023-04-01T00:45:38.606Z,79.10
2023-04-01T00:49:03.618Z,79.19
2023-04-01T00:52:09.195Z,79.20
2023-04-01T00:55:16.076Z,79.29
2023-04-01T00:58:23.449Z,79.08
2023-04-01T01:01:27.029Z,79.23
2023-04-01T01:04:33.167Z,79.34
2023-04-01T01:08:05.377Z,79.25
2023-04-01T01:11:12.723Z,79.03
2023-04-01T01:14:22.758Z,79.11
2023-04-01T01:17:49.028Z,79.03
2023-04-01T01:21:11.655Z,78.81
2023-04-01T01:24:23.447Z,78.90
2023-04-01T01:27:27.480Z,78.81
2023-04-01T01:30:59.680Z,78.84
2023-04-01T01:34:32.587Z,79.09
2023-04-01T01:37:36.584Z,78.89
2023-04-01T01:40:42.246Z,78.93
2023-04-01T01:43:48.754Z,79.01
2023-04-01T01:46:52.724Z,78.97
2023-04-01T01:49:56.849Z,78.75
2023-04-01T01:53:08.358Z,78.48
2023-04-01T01:56:16.715Z,78.48
2023-04-01T01:59:23.642Z,78.68
2023-04-01T02:02:27.995Z,78.81
2023-04-01T02:05:32.231Z,78.78
2023-04-01T02:09:04.028Z,78.86
2023-04-01T02:12:11.490Z,79.17
2023-04-01T02:15:18.970Z,79.55
2023-04-01T02:18:22.251Z,79.51
2023-04-01T02:21:30.643Z,79.57
2023-04-01T02:24:38.212Z,79.85
2023-04-01T02:27:44.620Z,79.53
2023-04-01T02:30:49.583Z,79.81
2023-04-01T02:33:53.598Z,79.98
2023-04-01T02:36:58.308Z,79.95
2023-04-01T02:40:03.358Z,80.27
2023-04-01T02:43:06.082Z,80.24
2023-04-01T02:46:09.108Z,80.42
2023-04-01T02:49:12.430Z,80.54
2023-04-01T02:52:16.010Z,80.59
2023-04-01T02:55:18.882Z,80.75
2023-04-01T02:58:21.873Z,80.75
2023-04-01T03:01:24.872Z,80.72
2023-04-01T03:04:27.761Z,80.85
2023-04-01T03:07:30.735Z,80.98
2023-04-01T03:10:33.561Z,81.26
2023-04-01T03:13:37.489Z,81.23
2023-04-01T03:16:40.525Z,81.37
2023-04-01T03:19:43.410Z,81.64
2023-04-01T03:22:46.933Z,81.64
2023-04-01T03:25:49.638Z,81.64
2023-04-01T03:28:52.462Z,81.73
2023-04-01T03:31:55.463Z,81.68
2023-04-01T03:34:58.570Z,81.70
2023-04-01T03:38:01.615Z,81.57
2023-04-01T03:41:04.893Z,81.79
2023-04-01T03:44:08.073Z,82.04
2023-04-01T03:47:11.101Z,81.82
2023-04-01T03:50:13.880Z,81.64
2023-04-01T03:53:16.772Z,82.04
2023-04-01T03:56:20.431Z,81.90
2023-04-01T03:59:23.273Z,82.08
2023-04-01T04:02:26.725Z,82.17
2023-04-01T04:05:29.985Z,82.12
2023-04-01T04:08:32.775Z,82.40
2023-04-01T04:11:36.439Z,82.32
2023-04-01T04:14:39.185Z,82.60
2023-04-01T04:17:42.540Z,82.65
2023-04-01T04:20:51.961Z,82.51
2023-04-01T04:23:55.711Z,82.42
2023-04-01T04:26:58.483Z,82.34
2023-04-01T04:30:01.268Z,82.35
2023-04-01T04:33:04.235Z,82.50
2023-04-01T04:36:08.180Z,82.76
2023-04-01T04:39:11.106Z,82.60
2023-04-01T04:42:16.854Z,82.83
2023-04-01T04:45:20.563Z,82.66
2023-04-01T04:48:29.711Z,82.73
2023-04-01T04:51:34.972Z,82.49
2023-04-01T04:54:38.036Z,82.63
2023-04-01T04:57:42.367Z,82.59
2023-04-01T05:00:46.266Z,82.59
2023-04-01T05:03:56.665Z,82.80
2023-04-01T05:06:59.381Z,82.81
2023-04-01T05:10:02.389Z,82.41
2023-04-01T05:13:05.225Z,82.42
2023-04-01T05:16:16.798Z,82.53
2023-04-01T05:19:19.788Z,82.48
2023-04-01T05:22:22.592Z,82.24
2023-04-01T05:25:25.944Z,81.89
2023-04-01T05:28:28.850Z,81.79
2023-04-01T05:31:31.714Z,81.86
2023-04-01T05:34:34.915Z,81.86
2023-04-01T05:37:38.871Z,81.83
2023-04-01T05:40:41.607Z,81.36
2023-04-01T05:43:44.906Z,81.25
2023-04-01T05:47:19.695Z,80.99
2023-04-01T05:54:12.962Z,81.19
2023-04-01T05:57:16.289Z,81.09
2023-04-01T06:00:21.061Z,81.18
2023-04-01T06:03:24.492Z,81.21
2023-04-01T06:06:30.013Z,81.28
2023-04-01T06:09:37.425Z,81.27
2023-04-01T06:12:43.806Z,81.49
2023-04-01T06:16:01.668Z,80.91
2023-04-01T06:19:08.913Z,81.00
2023-04-01T06:22:37.720Z,81.24
2023-04-01T06:25:55.042Z,81.06
2023-04-01T06:29:22.778Z,80.83
2023-04-01T06:32:25.792Z,80.53
2023-04-01T06:35:39.503Z,80.90
2023-04-01T06:38:48.458Z,81.01
2023-04-01T06:42:18.452Z,80.99
2023-04-01T06:45:55.253Z,81.05
2023-04-01T06:49:22.943Z,81.28
2023-04-01T06:53:13.893Z,81.21
2023-04-01T06:56:34.013Z,81.23
2023-04-01T06:59:50.017Z,81.17
2023-04-01T07:03:36.489Z,81.18
2023-04-01T07:06:49.951Z,80.86
2023-04-01T07:10:00.260Z,80.87
2023-04-01T07:13:13.841Z,81.25
2023-04-01T07:16:33.335Z,81.33
2023-04-01T07:19:53.011Z,81.74
2023-04-01T07:23:00.544Z,81.86
2023-04-01T07:26:19.927Z,81.47
2023-04-01T07:29:49.070Z,81.24
2023-04-01T07:33:55.511Z,81.37
2023-04-01T07:37:06.483Z,81.07
2023-04-01T07:40:42.411Z,80.83
2023-04-01T07:43:54.462Z,81.13
2023-04-01T07:47:26.778Z,80.95
2023-04-01T07:50:35.772Z,81.07
2023-04-01T07:53:49.893Z,81.15
2023-04-01T07:57:04.291Z,80.96
2023-04-01T08:00:43.820Z,80.97
2023-04-01T08:04:07.364Z,81.17
2023-04-01T08:07:13.150Z,81.29
2023-04-01T08:10:34.092Z,80.66
2023-04-01T08:14:25.304Z,80.33
2023-04-01T08:18:27.668Z,80.57
2023-04-01T08:21:43.075Z,80.72
2023-04-01T08:24:48.993Z,80.52
2023-04-01T08:28:25.462Z,80.18
2023-04-01T08:32:11.663Z,80.08
2023-04-01T08:35:49.928Z,79.86
2023-04-01T08:38:56.290Z,80.13
2023-04-01T08:42:16.448Z,79.94
2023-04-01T08:45:25.547Z,79.00
2023-04-01T08:48:47.412Z,78.76
2023-04-01T08:52:33.048Z,78.67
2023-04-01T08:55:36.289Z,78.81
2023-04-01T08:59:15.681Z,78.55
2023-04-01T09:02:57.014Z,78.80
2023-04-01T09:06:13.122Z,78.71
2023-04-01T09:09:48.419Z,79.06
2023-04-01T09:13:29.869Z,79.25
2023-04-01T09:16:55.672Z,79.53
2023-04-01T09:20:31.956Z,79.84
2023-04-01T09:24:15.488Z,79.79
2023-04-01T09:27:35.700Z,80.03
2023-04-01T09:30:57.004Z,80.36
2023-04-01T09:34:22.338Z,80.83
2023-04-01T09:38:01.699Z,80.84
2023-04-01T09:41:24.791Z,80.85
2023-04-01T09:44:42.968Z,80.83
2023-04-01T09:48:00.683Z,80.93
2023-04-01T09:51:31.651Z,81.01
2023-04-01T09:54:50.624Z,81.26
2023-04-01T09:58:02.656Z,81.70
2023-04-01T10:02:18.185Z,81.79
2023-04-01T10:06:00.759Z,81.57
2023-04-01T10:09:32.948Z,82.06
2023-04-01T10:12:54.276Z,82.97
2023-04-01T10:16:25.628Z,82.27
2023-04-01T10:19:50.650Z,81.89
2023-04-01T10:23:13.177Z,81.63
2023-04-01T10:26:53.964Z,80.69
2023-04-01T10:30:28.600Z,79.70
2023-04-01T10:33:58.062Z,78.81
2023-04-01T10:37:27.604Z,79.04
2023-04-01T10:40:48.949Z,78.77
2023-04-01T10:44:23.604Z,79.03
2023-04-01T10:48:03.809Z,79.24
2023-04-01T10:51:22.480Z,79.28
2023-04-01T10:54:47.162Z,79.42
2023-04-01T10:58:28.765Z,79.74
2023-04-01T11:02:25.146Z,79.93
2023-04-01T11:06:17.250Z,79.99
2023-04-01T11:09:39.091Z,80.09
2023-04-01T11:12:45.162Z,79.82
2023-04-01T11:16:20.543Z,79.48
2023-04-01T11:19:23.524Z,79.70
2023-04-01T11:22:56.950Z,79.69
2023-04-01T11:26:07.102Z,79.54
2023-04-01T11:29:34.169Z,79.51
2023-04-01T11:33:04.835Z,79.66
2023-04-01T11:36:17.381Z,79.56
2023-04-01T11:39:32.747Z,79.87
2023-04-01T11:43:32.244Z,80.60
2023-04-01T11:47:19.169Z,80.60
2023-04-01T11:50:41.432Z,80.47
2023-04-01T11:54:02.882Z,80.35
2023-04-01T11:57:13.197Z,80.37
2023-04-01T12:00:26.188Z,80.27
2023-04-01T12:03:37.973Z,80.29
2023-04-01T12:06:55.454Z,80.99
2023-04-01T12:10:04.818Z,81.23
2023-04-01T12:13:28.428Z,81.41
2023-04-01T12:16:40.701Z,81.14
2023-04-01T12:19:53.991Z,80.92
2023-04-01T12:23:09.453Z,80.18
2023-04-01T12:26:19.576Z,80.05
2023-04-01T12:29:25.311Z,79.19
2023-04-01T12:32:49.194Z,78.60
2023-04-01T12:36:16.841Z,78.91
2023-04-01T12:39:25.620Z,79.00
2023-04-01T12:42:43.685Z,78.14
2023-04-01T12:46:06.836Z,77.27
2023-04-01T12:49:25.024Z,77.19
2023-04-01T12:52:51.935Z,77.39
2023-04-01T12:56:04.719Z,77.37
2023-04-01T12:59:42.099Z,77.59
2023-04-01T13:03:06.132Z,77.73
2023-04-01T13:06:38.987Z,78.15
2023-04-01T13:09:52.426Z,78.42
2023-04-01T13:13:12.228Z,78.69
2023-04-01T13:16:42.659Z,78.76
2023-04-01T13:20:02.041Z,78.88
2023-04-01T13:23:10.666Z,79.14
2023-04-01T13:26:29.584Z,78.77
2023-04-01T13:29:40.373Z,78.39
2023-04-01T13:32:55.897Z,78.02
2023-04-01T13:36:29.648Z,77.43
2023-04-01T13:40:01.607Z,77.31
2023-04-01T13:43:24.691Z,77.37
2023-04-01T13:46:36.714Z,77.94
2023-04-01T13:50:06.229Z,78.50
2023-04-01T13:53:36.934Z,78.95
2023-04-01T13:56:59.467Z,79.24
2023-04-01T14:00:32.162Z,79.45
2023-04-01T14:03:44.140Z,79.57
2023-04-01T14:07:22.640Z,79.66
2023-04-01T14:11:10.433Z,79.96
2023-04-01T14:14:18.885Z,80.14
2023-04-01T14:18:02.796Z,80.33
2023-04-01T14:21:14.766Z,80.43
2023-04-01T14:24:42.162Z,80.42
2023-04-01T14:28:23.138Z,80.40
2023-04-01T14:31:31.935Z,80.41
2023-04-01T14:35:11.662Z,80.42
2023-04-01T14:38:26.646Z,80.41
2023-04-01T14:42:15.605Z,80.55
2023-04-01T14:45:41.902Z,80.35
2023-04-01T14:48:57.218Z,80.34
2023-04-01T14:52:18.521Z,80.30
2023-04-01T14:55:39.801Z,80.14
2023-04-01T14:58:51.373Z,79.61
2023-04-01T15:02:15.343Z,79.46
2023-04-01T15:05:37.419Z,79.59
2023-04-01T15:08:51.719Z,79.69
2023-04-01T15:12:14.681Z,79.80
2023-04-01T15:15:37.231Z,79.27
2023-04-01T15:18:49.151Z,79.29
2023-04-01T15:22:07.634Z,79.46
2023-04-01T15:25:29.217Z,79.70
2023-04-01T15:29:02.364Z,79.70
2023-04-01T15:32:21.060Z,80.03
2023-04-01T15:35:30.009Z,80.24
2023-04-01T15:38:49.544Z,80.34
2023-04-01T15:42:31.105Z,80.61
2023-04-01T15:45:39.856Z,80.63
2023-04-01T15:49:04.587Z,80.77
2023-04-01T15:52:55.802Z,80.75
2023-04-01T15:56:42.307Z,80.92
2023-04-01T16:00:09.864Z,81.47
2023-04-01T16:03:50.552Z,81.61
2023-04-01T16:07:25.684Z,81.94
2023-04-01T16:10:50.428Z,81.94
2023-04-01T16:14:24.734Z,82.19
2023-04-01T16:18:05.708Z,82.49
2023-04-01T16:21:23.292Z,82.31
2023-04-01T16:24:37.060Z,82.35
2023-04-01T16:27:42.733Z,82.64
2023-04-01T16:31:14.799Z,82.64
2023-04-01T16:34:26.266Z,82.72
2023-04-01T16:37:46.472Z,82.93
2023-04-01T16:41:23.124Z,83.05
2023-04-01T16:44:28.533Z,83.02
2023-04-01T16:47:39.790Z,83.50
2023-04-01T16:51:11.022Z,83.19
2023-04-01T16:54:19.984Z,83.28
2023-04-01T16:57:31.739Z,83.67
2023-04-01T17:00:40.100Z,83.85
2023-04-01T17:03:46.925Z,83.72
2023-04-01T17:07:08.363Z,83.73
2023-04-01T17:10:48.239Z,83.82
2023-04-01T17:14:02.934Z,84.08
2023-04-01T17:17:31.268Z,84.07
2023-04-01T17:20:39.857Z,83.91
2023-04-01T17:23:55.072Z,83.85
2023-04-01T17:27:38.883Z,84.34
2023-04-01T17:31:08.055Z,84.31
2023-04-01T17:34:36.992Z,84.06
2023-04-01T17:37:51.632Z,84.31
2023-04-01T17:41:25.644Z,84.43
2023-04-01T17:44:28.463Z,84.33
2023-04-01T17:47:51.225Z,84.57
2023-04-01T17:51:18.138Z,84.40
2023-04-01T17:54:32.998Z,84.53
2023-04-01T17:57:56.038Z,84.19
2023-04-01T18:01:23.394Z,84.45
2023-04-01T18:04:32.178Z,84.48
2023-04-01T18:08:01.665Z,84.65
2023-04-01T18:11:45.900Z,84.96
2023-04-01T18:15:22.283Z,84.73
2023-04-01T18:18:48.205Z,84.59
2023-04-01T18:21:56.876Z,84.77
2023-04-01T18:25:13.964Z,84.58
2023-04-01T18:28:32.249Z,84.90
2023-04-01T18:31:43.183Z,84.93
2023-04-01T18:34:55.389Z,84.91
2023-04-01T18:38:03.995Z,85.01
2023-04-01T18:41:28.598Z,85.24
2023-04-01T18:44:43.291Z,85.48
2023-04-01T18:47:57.335Z,85.45
2023-04-01T18:51:11.514Z,85.68
2023-04-01T18:54:46.626Z,85.52
2023-04-01T18:58:13.610Z,85.64
2023-04-01T19:01:35.958Z,85.39
2023-04-01T19:04:50.152Z,85.47
2023-04-01T19:07:55.019Z,85.35
2023-04-01T19:11:40.445Z,85.70
2023-04-01T19:14:58.060Z,85.42
2023-04-01T19:18:15.412Z,85.49
2023-04-01T19:21:30.408Z,85.62
2023-04-01T19:24:53.098Z,85.41
2023-04-01T19:28:22.788Z,85.75
2023-04-01T19:31:25.690Z,85.57
2023-04-01T19:35:04.057Z,85.45
2023-04-01T19:38:22.318Z,85.73
2023-04-01T19:41:53.714Z,85.61
2023-04-01T19:45:09.526Z,85.63
2023-04-01T19:48:39.642Z,85.51
2023-04-01T19:52:15.619Z,85.81
2023-04-01T19:55:27.196Z,85.50
2023-04-01T19:59:21.974Z,85.57
2023-04-01T20:02:40.840Z,85.74
2023-04-01T20:06:08.899Z,85.34
2023-04-01T20:09:41.154Z,85.76
2023-04-01T20:12:46.998Z,85.43
2023-04-01T20:16:02.349Z,85.21
2023-04-01T20:19:05.416Z,85.56
2023-04-01T20:22:26.457Z,85.36
2023-04-01T20:25:44.261Z,85.00
2023-04-01T20:29:22.076Z,85.06
2023-04-01T20:33:02.055Z,85.00
2023-04-01T20:36:26.044Z,84.88
2023-04-01T20:39:31.793Z,85.04
2023-04-01T20:43:02.784Z,85.06
2023-04-01T20:46:31.908Z,84.97
2023-04-01T20:49:40.611Z,85.39
2023-04-01T20:52:55.446Z,85.19
2023-04-01T20:56:17.087Z,85.07
2023-04-01T20:59:35.873Z,85.16
2023-04-01T21:03:09.405Z,85.52
2023-04-01T21:06:14.910Z,85.39
2023-04-01T21:09:31.248Z,85.21
2023-04-01T21:12:46.237Z,85.14
2023-04-01T21:16:26.403Z,85.31
2023-04-01T21:19:50.348Z,85.27
2023-04-01T21:23:43.848Z,85.47
2023-04-01T21:26:52.639Z,85.21
2023-04-01T21:30:17.458Z,85.28
2023-04-01T21:33:42.187Z,85.30
2023-04-01T21:37:06.452Z,85.53
2023-04-01T21:40:27.764Z,85.59
2023-04-01T21:43:55.689Z,85.60
2023-04-01T21:47:03.654Z,85.66
2023-04-01T21:50:44.146Z,85.52
2023-04-01T21:53:59.054Z,85.44
2023-04-01T21:57:08.117Z,85.31
2023-04-01T22:00:17.534Z,85.65
2023-04-01T22:03:32.749Z,85.80
2023-04-01T22:06:42.107Z,85.63
2023-04-01T22:10:10.157Z,85.85
2023-04-01T22:13:21.175Z,85.88
2023-04-01T22:16:33.255Z,86.03
2023-04-01T22:19:36.682Z,85.70
2023-04-01T22:22:52.181Z,85.84
2023-04-01T22:26:10.913Z,85.91
2023-04-01T22:29:16.670Z,85.78
2023-04-01T22:32:28.197Z,85.80
2023-04-01T22:35:31.583Z,85.66
2023-04-01T22:38:59.110Z,85.50
2023-04-01T22:42:21.845Z,85.42
2023-04-01T22:45:34.006Z,85.53
2023-04-01T22:48:48.779Z,85.52
2023-04-01T22:52:04.220Z,85.14
2023-04-01T22:55:21.468Z,85.22
2023-04-01T22:58:31.911Z,85.45
2023-04-01T23:01:41.398Z,85.38
2023-04-01T23:04:52.264Z,85.40
2023-04-01T23:08:39.122Z,85.12
2023-04-01T23:11:58.794Z,85.05
2023-04-01T23:15:03.421Z,84.84
2023-04-01T23:18:35.124Z,84.76
2023-04-01T23:21:50.813Z,84.71
2023-04-01T23:25:08.575Z,84.65
2023-04-01T23:28:17.170Z,84.59
2023-04-01T23:31:32.875Z,84.62
2023-04-01T23:34:36.899Z,84.71
2023-04-01T23:37:39.679Z,84.70
2023-04-01T23:40:43.014Z,84.49
2023-04-01T23:43:50.436Z,84.81
2023-04-01T23:46:54.565Z,84.61
2023-04-01T23:50:19.306Z,84.71
2023-04-01T23:53:26.268Z,84.86
2023-04-01T23:56:49.777Z,84.61
